Fish Play — WDH8753 — position and weather

sailwx.info

Track history (hours):
 
Tides and Currents Weather Stations Pressure Air Temp Water Temp Dewpoint Dewpoint Depression Visibility Wind Speed Wind Dir Waves Ship Positions

Fish Play

Owner: Fish Play Charters LLC, Federalsburg, MD. More information available from US FCC via Universal Licensing System and Coast Guard Vessel Documentation Center.

Last reported at 2018-Feb-22 02:06 UTC. Time now 2018-Feb-22 06:59 UTC.
Position N 37°52' W 122°19'.

Length 18 m.

Type: Passenger vessel. MMSI: 338208626.

Date/timePositionNaut miles runAvg speedWind from/ knotsBaromVisibWave heightAir tempDewpointWater temp
2018-Feb-22 02:06N 37°52' W 122°19'0 1.5
2018-Feb-22 02:00N 37°52' W 122°19'510.7
2018-Feb-22 01:30N 37°48' W 122°23'510.7
2018-Feb-22 01:00N 37°52' W 122°19'611.3
2018-Feb-22 00:31N 37°48' W 122°24'611.1
2018-Feb-22 00:00N 37°52' W 122°19'0 0.0
2018-Feb-21 17:47N 37°52' W 122°19'0 0.6
2018-Feb-21 17:30N 37°52' W 122°19'611.0
2018-Feb-21 17:00N 37°48' W 122°24'611.0
2018-Feb-21 16:30N 37°52' W 122°19'611.2
2018-Feb-21 16:00N 37°48' W 122°24'611.0
2018-Feb-21 15:30N 37°52' W 122°19'0 0.0
2018-Feb-21 15:00N 37°52' W 122°19'0 0.0
2018-Feb-21 02:07N 37°52' W 122°19'0 1.0
2018-Feb-21 02:01N 37°52' W 122°19'611.0
2018-Feb-21 01:30N 37°48' W 122°24'611.0
2018-Feb-21 01:00N 37°52' W 122°19'611.0
2018-Feb-21 00:30N 37°48' W 122°24'5 0.8
2018-Feb-20 17:47N 37°52' W 122°19'2 5.9
2018-Feb-20 17:30N 37°51' W 122°21'4 7.6
2018-Feb-20 17:00N 37°48' W 122°23'510.5
2018-Feb-20 16:31N 37°52' W 122°19'511.0
2018-Feb-20 16:00N 37°48' W 122°24'611.0
2018-Feb-20 15:30N 37°52' W 122°19'0 0.0
2018-Feb-20 15:00N 37°52' W 122°19'  
2018-Feb-17 02:07N 37°52' W 122°19'0 1.7
2018-Feb-17 02:00N 37°52' W 122°19'510.3
2018-Feb-17 01:30N 37°48' W 122°23'510.6
2018-Feb-17 01:00N 37°52' W 122°19'511.0
2018-Feb-17 00:31N 37°48' W 122°24'510.8
2018-Feb-17 00:00N 37°52' W 122°19'0 0.0
2018-Feb-16 23:31N 37°52' W 122°19'0 0.0
2018-Feb-16 23:00N 37°52' W 122°19'0 0.1
2018-Feb-16 22:31N 37°52' W 122°19'4 8.8
2018-Feb-16 22:00N 37°52' W 122°24'2 3.8
2018-Feb-16 21:30N 37°52' W 122°27'1 1.5
2018-Feb-16 21:01N 37°52' W 122°26'1 2.0
2018-Feb-16 20:30N 37°52' W 122°27'0 0.0
2018-Feb-16 20:01N 37°52' W 122°27'3 5.9
2018-Feb-16 19:30N 37°52' W 122°24'4 8.4
2018-Feb-16 19:01N 37°50' W 122°19'0 0.1
2018-Feb-16 18:31N 37°50' W 122°19'0 0.4
2018-Feb-16 18:01N 37°51' W 122°19'1 3.0
2018-Feb-16 17:30N 37°52' W 122°19'510.8
2018-Feb-16 17:00N 37°48' W 122°24'510.9
2018-Feb-16 16:30N 37°52' W 122°19'611.2
2018-Feb-16 16:00N 37°48' W 122°24'611.1
2018-Feb-16 15:30N 37°52' W 122°19'0 0.0
2018-Feb-16 02:22N 37°52' W 122°19'0 0.6
2018-Feb-16 02:01N 37°52' W 122°19'510.5
2018-Feb-16 01:30N 37°48' W 122°24'510.8
2018-Feb-16 01:00N 37°52' W 122°19'611.1
2018-Feb-16 00:30N 37°48' W 122°24'611.0
2018-Feb-16 00:00N 37°52' W 122°19'0 0.0
2018-Feb-15 17:38N 37°52' W 122°19'0 1.7
2018-Feb-15 17:30N 37°52' W 122°19'510.7
2018-Feb-15 17:00N 37°48' W 122°24'510.9
2018-Feb-15 16:30N 37°52' W 122°19'611.0
2018-Feb-15 16:00N 37°48' W 122°24'611.3
2018-Feb-15 15:30N 37°52' W 122°19'0 0.0
2018-Feb-15 02:30N 37°52' W 122°19'0 0.3
2018-Feb-15 02:01N 37°52' W 122°19'5 9.3
2018-Feb-15 01:30N 37°49' W 122°23'4 8.6
2018-Feb-15 01:00N 37°52' W 122°19'510.1
2018-Feb-15 00:30N 37°48' W 122°24'510.7
2018-Feb-15 00:00N 37°52' W 122°19'0 0.0
2018-Feb-14 23:28N 37°52' W 122°19'0 0.0
2018-Feb-14 23:00N 37°52' W 122°19'2 3.1
2018-Feb-14 22:30N 37°50' W 122°19'0 0.4
2018-Feb-14 22:00N 37°50' W 122°19'5 9.3
2018-Feb-14 21:30N 37°52' W 122°24'2 4.9
2018-Feb-14 21:00N 37°52' W 122°27'5 9.4
2018-Feb-14 20:30N 37°51' W 122°22'2 1.3
2018-Feb-14 18:39N 37°52' W 122°19'0 0.0
2018-Feb-14 18:30N 37°52' W 122°19'0 0.0
2018-Feb-14 18:00N 37°52' W 122°19'3 5.3
2018-Feb-14 17:30N 37°51' W 122°22'1 2.6
2018-Feb-14 17:01N 37°50' W 122°23'3 6.7
2018-Feb-14 16:30N 37°52' W 122°19'510.1
2018-Feb-14 16:00N 37°48' W 122°24'510.9
2018-Feb-14 15:30N 37°52' W 122°19'0 0.0
2018-Feb-14 02:17N 37°52' W 122°19'2 7.5
2018-Feb-14 02:00N 37°51' W 122°21'2 4.8
2018-Feb-14 01:30N 37°49' W 122°23'4 8.3
2018-Feb-14 01:00N 37°52' W 122°19'510.5
2018-Feb-14 00:30N 37°48' W 122°24'510.6
2018-Feb-14 00:00N 37°52' W 122°19'0 0.0
2018-Feb-13 23:30N 37°52' W 122°19'0 0.0
2018-Feb-13 23:00N 37°52' W 122°19'0 0.0
2018-Feb-13 17:43N 37°52' W 122°19'2 7.8
2018-Feb-13 17:30N 37°51' W 122°21'3 6.1
2018-Feb-13 17:00N 37°49' W 122°23'4 8.8
2018-Feb-13 16:30N 37°52' W 122°19'510.8
2018-Feb-13 16:00N 37°48' W 122°24'611.2
2018-Feb-13 15:30N 37°52' W 122°19'0 0.0
2018-Feb-13 15:00N 37°52' W 122°19'0 0.0
2018-Feb-13 03:01N 37°52' W 122°19'0 0.0
2018-Feb-13 03:00N 37°52' W 122°19'0 0.0
2018-Feb-13 02:08N 37°52' W 122°19'0 1.7
2018-Feb-13 02:00N 37°52' W 122°19'510.2
2018-Feb-13 01:31N 37°48' W 122°23'510.4
2018-Feb-13 01:00N 37°52' W 122°19'611.2
2018-Feb-13 00:30N 37°48' W 122°24'611.1
2018-Feb-13 00:00N 37°52' W 122°19'0 0.0
2018-Feb-12 23:30N 37°52' W 122°19'0 0.0
2018-Feb-12 23:00N 37°52' W 122°19'0 0.0
2018-Feb-12 22:30N 37°52' W 122°19'0 0.0
2018-Feb-12 22:00N 37°52' W 122°19'0 0.0
2018-Feb-12 21:30N 37°52' W 122°19'0 0.0
2018-Feb-12 21:00N 37°52' W 122°19'0 0.0
2018-Feb-12 20:30N 37°52' W 122°19'0 0.0
2018-Feb-12 20:00N 37°52' W 122°19'0 0.0
2018-Feb-12 17:40N 37°52' W 122°19'1 5.3
2018-Feb-12 17:30N 37°52' W 122°20'4 8.5
2018-Feb-12 17:00N 37°48' W 122°23'510.3
2018-Feb-12 16:30N 37°52' W 122°19'611.2
2018-Feb-12 16:00N 37°48' W 122°24'611.1
2018-Feb-12 15:30N 37°52' W 122°19'0 0.0
2018-Feb-12 14:42N 37°52' W 122°19'  
Track history (hours):
 
Tides and Currents Weather Stations Pressure Air Temp Water Temp Dewpoint Dewpoint Depression Visibility Wind Speed Wind Dir Waves Ship Positions

Fish Play

Owner: Fish Play Charters LLC, Federalsburg, MD. More information available from US FCC via Universal Licensing System and Coast Guard Vessel Documentation Center.

Last reported at 2018-Feb-22 02:06 UTC. Time now 2018-Feb-22 06:59 UTC.
Position N 37°52' W 122°19'.

Length 18 m.

Type: Passenger vessel. MMSI: 338208626.

Date/timePositionNaut miles runAvg speedWind from/ knotsBaromVisibWave heightAir tempDewpointWater temp
2018-Feb-22 02:06N 37°52' W 122°19'0 1.5
2018-Feb-22 02:00N 37°52' W 122°19'510.7
2018-Feb-22 01:30N 37°48' W 122°23'510.7
2018-Feb-22 01:00N 37°52' W 122°19'611.3
2018-Feb-22 00:31N 37°48' W 122°24'611.1
2018-Feb-22 00:00N 37°52' W 122°19'0 0.0
2018-Feb-21 17:47N 37°52' W 122°19'0 0.6
2018-Feb-21 17:30N 37°52' W 122°19'611.0
2018-Feb-21 17:00N 37°48' W 122°24'611.0
2018-Feb-21 16:30N 37°52' W 122°19'611.2
2018-Feb-21 16:00N 37°48' W 122°24'611.0
2018-Feb-21 15:30N 37°52' W 122°19'0 0.0
2018-Feb-21 15:00N 37°52' W 122°19'0 0.0
2018-Feb-21 02:07N 37°52' W 122°19'0 1.0
2018-Feb-21 02:01N 37°52' W 122°19'611.0
2018-Feb-21 01:30N 37°48' W 122°24'611.0
2018-Feb-21 01:00N 37°52' W 122°19'611.0
2018-Feb-21 00:30N 37°48' W 122°24'5 0.8
2018-Feb-20 17:47N 37°52' W 122°19'2 5.9
2018-Feb-20 17:30N 37°51' W 122°21'4 7.6
2018-Feb-20 17:00N 37°48' W 122°23'510.5
2018-Feb-20 16:31N 37°52' W 122°19'511.0
2018-Feb-20 16:00N 37°48' W 122°24'611.0
2018-Feb-20 15:30N 37°52' W 122°19'0 0.0
2018-Feb-20 15:00N 37°52' W 122°19'  
2018-Feb-17 02:07N 37°52' W 122°19'0 1.7
2018-Feb-17 02:00N 37°52' W 122°19'510.3
2018-Feb-17 01:30N 37°48' W 122°23'510.6
2018-Feb-17 01:00N 37°52' W 122°19'511.0
2018-Feb-17 00:31N 37°48' W 122°24'510.8
2018-Feb-17 00:00N 37°52' W 122°19'0 0.0
2018-Feb-16 23:31N 37°52' W 122°19'0 0.0
2018-Feb-16 23:00N 37°52' W 122°19'0 0.1
2018-Feb-16 22:31N 37°52' W 122°19'4 8.8
2018-Feb-16 22:00N 37°52' W 122°24'2 3.8
2018-Feb-16 21:30N 37°52' W 122°27'1 1.5
2018-Feb-16 21:01N 37°52' W 122°26'1 2.0
2018-Feb-16 20:30N 37°52' W 122°27'0 0.0
2018-Feb-16 20:01N 37°52' W 122°27'3 5.9
2018-Feb-16 19:30N 37°52' W 122°24'4 8.4
2018-Feb-16 19:01N 37°50' W 122°19'0 0.1
2018-Feb-16 18:31N 37°50' W 122°19'0 0.4
2018-Feb-16 18:01N 37°51' W 122°19'1 3.0
2018-Feb-16 17:30N 37°52' W 122°19'510.8
2018-Feb-16 17:00N 37°48' W 122°24'510.9
2018-Feb-16 16:30N 37°52' W 122°19'611.2
2018-Feb-16 16:00N 37°48' W 122°24'611.1
2018-Feb-16 15:30N 37°52' W 122°19'0 0.0
2018-Feb-16 02:22N 37°52' W 122°19'0 0.6
2018-Feb-16 02:01N 37°52' W 122°19'510.5
2018-Feb-16 01:30N 37°48' W 122°24'510.8
2018-Feb-16 01:00N 37°52' W 122°19'611.1
2018-Feb-16 00:30N 37°48' W 122°24'611.0
2018-Feb-16 00:00N 37°52' W 122°19'0 0.0
2018-Feb-15 17:38N 37°52' W 122°19'0 1.7
2018-Feb-15 17:30N 37°52' W 122°19'510.7
2018-Feb-15 17:00N 37°48' W 122°24'510.9
2018-Feb-15 16:30N 37°52' W 122°19'611.0
2018-Feb-15 16:00N 37°48' W 122°24'611.3
2018-Feb-15 15:30N 37°52' W 122°19'0 0.0
2018-Feb-15 02:30N 37°52' W 122°19'0 0.3
2018-Feb-15 02:01N 37°52' W 122°19'5 9.3
2018-Feb-15 01:30N 37°49' W 122°23'4 8.6
2018-Feb-15 01:00N 37°52' W 122°19'510.1
2018-Feb-15 00:30N 37°48' W 122°24'510.7
2018-Feb-15 00:00N 37°52' W 122°19'0 0.0
2018-Feb-14 23:28N 37°52' W 122°19'0 0.0
2018-Feb-14 23:00N 37°52' W 122°19'2 3.1
2018-Feb-14 22:30N 37°50' W 122°19'0 0.4
2018-Feb-14 22:00N 37°50' W 122°19'5 9.3
2018-Feb-14 21:30N 37°52' W 122°24'2 4.9
2018-Feb-14 21:00N 37°52' W 122°27'5 9.4
2018-Feb-14 20:30N 37°51' W 122°22'2 1.3
2018-Feb-14 18:39N 37°52' W 122°19'0 0.0
2018-Feb-14 18:30N 37°52' W 122°19'0 0.0
2018-Feb-14 18:00N 37°52' W 122°19'3 5.3
2018-Feb-14 17:30N 37°51' W 122°22'1 2.6
2018-Feb-14 17:01N 37°50' W 122°23'3 6.7
2018-Feb-14 16:30N 37°52' W 122°19'510.1
2018-Feb-14 16:00N 37°48' W 122°24'510.9
2018-Feb-14 15:30N 37°52' W 122°19'0 0.0
2018-Feb-14 02:17N 37°52' W 122°19'2 7.5
2018-Feb-14 02:00N 37°51' W 122°21'2 4.8
2018-Feb-14 01:30N 37°49' W 122°23'4 8.3
2018-Feb-14 01:00N 37°52' W 122°19'510.5
2018-Feb-14 00:30N 37°48' W 122°24'510.6
2018-Feb-14 00:00N 37°52' W 122°19'0 0.0
2018-Feb-13 23:30N 37°52' W 122°19'0 0.0
2018-Feb-13 23:00N 37°52' W 122°19'0 0.0
2018-Feb-13 17:43N 37°52' W 122°19'2 7.8
2018-Feb-13 17:30N 37°51' W 122°21'3 6.1
2018-Feb-13 17:00N 37°49' W 122°23'4 8.8
2018-Feb-13 16:30N 37°52' W 122°19'510.8
2018-Feb-13 16:00N 37°48' W 122°24'611.2
2018-Feb-13 15:30N 37°52' W 122°19'0 0.0
2018-Feb-13 15:00N 37°52' W 122°19'0 0.0
2018-Feb-13 03:01N 37°52' W 122°19'0 0.0
2018-Feb-13 03:00N 37°52' W 122°19'0 0.0
2018-Feb-13 02:08N 37°52' W 122°19'0 1.7
2018-Feb-13 02:00N 37°52' W 122°19'510.2
2018-Feb-13 01:31N 37°48' W 122°23'510.4
2018-Feb-13 01:00N 37°52' W 122°19'611.2
2018-Feb-13 00:30N 37°48' W 122°24'611.1
2018-Feb-13 00:00N 37°52' W 122°19'0 0.0
2018-Feb-12 23:30N 37°52' W 122°19'0 0.0
2018-Feb-12 23:00N 37°52' W 122°19'0 0.0
2018-Feb-12 22:30N 37°52' W 122°19'0 0.0
2018-Feb-12 22:00N 37°52' W 122°19'0 0.0
2018-Feb-12 21:30N 37°52' W 122°19'0 0.0
2018-Feb-12 21:00N 37°52' W 122°19'0 0.0
2018-Feb-12 20:30N 37°52' W 122°19'0 0.0
2018-Feb-12 20:00N 37°52' W 122°19'0 0.0
2018-Feb-12 17:40N 37°52' W 122°19'1 5.3
2018-Feb-12 17:30N 37°52' W 122°20'4 8.5
2018-Feb-12 17:00N 37°48' W 122°23'510.3
2018-Feb-12 16:30N 37°52' W 122°19'611.2
2018-Feb-12 16:00N 37°48' W 122°24'611.1
2018-Feb-12 15:30N 37°52' W 122°19'0 0.0
2018-Feb-12 14:42N 37°52' W 122°19'  

Dump ship's entire track history